createdAt,value
2018-11-01T00:00:23.736Z,1.27
2018-11-01T00:02:51.396Z,0.87
2018-11-01T00:05:19.005Z,1.03
2018-11-01T00:07:46.656Z,1.30
2018-11-01T00:10:14.641Z,1.30
2018-11-01T00:12:43.329Z,1.10
2018-11-01T00:15:12.396Z,1.17
2018-11-01T00:17:40.000Z,1.37
2018-11-01T00:20:09.768Z,1.50
2018-11-01T00:22:37.500Z,1.20
2018-11-01T00:25:05.961Z,1.50
2018-11-01T00:27:33.549Z,1.40
2018-11-01T00:30:01.231Z,2.00
2018-11-01T00:32:28.836Z,1.80
2018-11-01T00:34:56.435Z,1.30
2018-11-01T00:37:24.075Z,1.67
2018-11-01T00:39:51.664Z,1.80
2018-11-01T00:42:19.271Z,1.43
2018-11-01T00:44:46.901Z,1.20
2018-11-01T00:47:14.554Z,1.60
2018-11-01T00:49:42.302Z,1.50
2018-11-01T00:52:09.901Z,1.40
2018-11-01T00:54:37.577Z,1.43
2018-11-01T00:57:05.533Z,1.60
2018-11-01T00:59:33.116Z,1.40
2018-11-01T01:02:00.731Z,1.70
2018-11-01T01:04:28.340Z,1.70
2018-11-01T01:06:55.996Z,1.60
2018-11-01T01:09:23.648Z,1.60
2018-11-01T01:11:51.253Z,1.53
2018-11-01T01:14:18.864Z,1.23
2018-11-01T01:16:46.479Z,1.40
2018-11-01T01:19:14.073Z,1.63
2018-11-01T01:21:41.724Z,1.60
2018-11-01T01:24:09.374Z,1.50
2018-11-01T01:26:36.957Z,1.37
2018-11-01T01:29:04.851Z,1.40
2018-11-01T01:31:32.464Z,1.40
2018-11-01T01:34:00.044Z,2.03
2018-11-01T01:36:27.695Z,1.50
2018-11-01T01:38:55.293Z,1.63
2018-11-01T01:41:22.886Z,1.40
2018-11-01T01:43:50.520Z,0.83
2018-11-01T01:46:18.106Z,1.20
2018-11-01T01:48:45.685Z,1.20
2018-11-01T01:51:13.322Z,1.00
2018-11-01T01:53:40.902Z,1.00
2018-11-01T01:56:25.495Z,1.00
2018-11-01T01:58:53.069Z,1.37
2018-11-01T02:01:20.647Z,1.40
2018-11-01T02:03:48.304Z,1.37
2018-11-01T02:06:15.904Z,1.23
2018-11-01T02:08:43.488Z,1.50
2018-11-01T02:11:11.132Z,1.03
2018-11-01T02:13:38.737Z,0.97
2018-11-01T02:16:06.357Z,1.00
2018-11-01T02:18:34.004Z,1.00
2018-11-01T02:21:01.601Z,0.70
2018-11-01T02:23:29.195Z,0.63
2018-11-01T02:25:56.827Z,0.90
2018-11-01T02:28:24.443Z,0.63
2018-11-01T02:30:52.077Z,0.60
2018-11-01T02:33:19.689Z,0.40
2018-11-01T02:35:47.278Z,0.70
2018-11-01T02:38:15.021Z,0.60
2018-11-01T02:40:42.537Z,0.63
2018-11-01T02:43:10.136Z,0.67
2018-11-01T02:45:37.774Z,0.70
2018-11-01T02:48:05.590Z,1.00
2018-11-01T02:50:33.226Z,1.30
2018-11-01T02:53:00.988Z,0.60
2018-11-01T02:55:28.615Z,0.40
2018-11-01T02:57:56.209Z,0.73
2018-11-01T03:00:23.839Z,0.90
2018-11-01T03:02:51.456Z,0.50
2018-11-01T03:05:19.095Z,0.80
2018-11-01T03:07:46.704Z,0.47
2018-11-01T03:10:14.848Z,0.70
2018-11-01T03:12:42.564Z,0.70
2018-11-01T03:15:12.214Z,0.50
2018-11-01T03:17:39.872Z,0.40
2018-11-01T03:20:08.163Z,0.60
2018-11-01T03:22:35.856Z,0.40
2018-11-01T03:25:03.617Z,0.50
2018-11-01T03:27:31.302Z,0.60
2018-11-01T03:29:59.068Z,0.43
2018-11-01T03:32:26.764Z,0.50
2018-11-01T03:34:54.389Z,0.30
2018-11-01T03:37:22.046Z,0.50
2018-11-01T03:39:49.712Z,0.40
2018-11-01T03:42:17.394Z,0.40
2018-11-01T03:44:45.115Z,0.50
2018-11-01T03:47:12.769Z,0.40
2018-11-01T03:49:40.392Z,0.50
2018-11-01T03:52:08.053Z,0.20
2018-11-01T03:54:35.632Z,0.37
2018-11-01T03:57:03.302Z,0.23
2018-11-01T03:59:30.914Z,0.50
2018-11-01T04:01:58.657Z,0.27
2018-11-01T04:04:26.256Z,0.20
2018-11-01T04:06:53.892Z,0.20
2018-11-01T04:09:21.472Z,0.27
2018-11-01T04:11:49.096Z,0.30
2018-11-01T04:14:16.705Z,0.30
2018-11-01T04:16:44.377Z,0.30
2018-11-01T04:19:12.067Z,0.60
2018-11-01T04:21:39.681Z,0.57
2018-11-01T04:24:07.295Z,0.40
2018-11-01T04:26:34.880Z,0.10
2018-11-01T04:29:02.594Z,0.23
2018-11-01T04:31:30.165Z,0.30
2018-11-01T04:33:57.765Z,0.37
2018-11-01T04:36:25.776Z,0.20
2018-11-01T04:38:53.815Z,0.40
2018-11-01T04:41:21.481Z,0.33
2018-11-01T04:43:49.473Z,0.83
2018-11-01T04:46:17.075Z,0.93
2018-11-01T04:48:44.737Z,0.20
2018-11-01T04:51:12.349Z,0.20
2018-11-01T04:53:39.957Z,0.40
2018-11-01T04:56:07.652Z,0.37
2018-11-01T04:58:35.368Z,0.60
2018-11-01T05:01:02.976Z,0.30
2018-11-01T05:03:30.621Z,0.40
2018-11-01T05:05:58.323Z,0.60
2018-11-01T05:08:25.924Z,0.30
2018-11-01T05:10:53.525Z,0.40
2018-11-01T05:13:21.267Z,0.30
2018-11-01T05:15:48.857Z,0.67
2018-11-01T05:18:16.453Z,0.50
2018-11-01T05:20:44.108Z,0.73
2018-11-01T05:23:11.709Z,0.90
2018-11-01T05:25:39.351Z,0.50
2018-11-01T05:28:06.992Z,0.60
2018-11-01T05:30:34.712Z,0.30
2018-11-01T05:33:02.324Z,0.40
2018-11-01T05:35:30.010Z,0.30
2018-11-01T05:37:57.761Z,0.20
2018-11-01T05:40:25.478Z,0.20
2018-11-01T05:42:53.174Z,0.40
2018-11-01T05:45:20.917Z,0.40
2018-11-01T05:47:48.593Z,0.30
2018-11-01T05:50:16.294Z,0.20
2018-11-01T05:52:44.001Z,0.20
2018-11-01T05:55:11.729Z,0.30
2018-11-01T05:57:39.438Z,0.70
2018-11-01T06:00:09.373Z,0.30
2018-11-01T06:02:38.552Z,0.23
2018-11-01T06:05:07.091Z,0.20
2018-11-01T06:07:43.517Z,0.30
2018-11-01T06:10:11.327Z,0.50
2018-11-01T06:12:39.025Z,0.23
2018-11-01T06:15:08.033Z,0.10
2018-11-01T06:17:35.747Z,0.30
2018-11-01T06:20:03.747Z,0.40
2018-11-01T06:22:31.481Z,0.30
2018-11-01T06:24:59.220Z,0.10
2018-11-01T06:27:26.933Z,0.30
2018-11-01T06:29:54.645Z,0.53
2018-11-01T06:32:22.400Z,0.50
2018-11-01T06:34:52.466Z,0.27
2018-11-01T06:37:20.243Z,0.33
2018-11-01T06:39:47.958Z,0.60
2018-11-01T06:42:15.706Z,0.37
2018-11-01T06:44:43.463Z,0.60
2018-11-01T06:47:11.142Z,0.50
2018-11-01T06:49:38.967Z,0.53
2018-11-01T06:52:06.802Z,0.47
2018-11-01T06:54:34.521Z,0.33
2018-11-01T06:57:02.491Z,0.50
2018-11-01T06:59:30.332Z,0.20
2018-11-01T07:01:57.895Z,0.30
2018-11-01T07:04:25.630Z,0.60
2018-11-01T07:06:53.327Z,0.80
2018-11-01T07:09:21.038Z,0.50
2018-11-01T07:11:48.716Z,0.47
2018-11-01T07:14:16.435Z,0.40
2018-11-01T07:16:44.134Z,0.73
2018-11-01T07:19:11.843Z,0.50
2018-11-01T07:21:39.542Z,0.53
2018-11-01T07:24:07.235Z,0.43
2018-11-01T07:26:35.031Z,0.50
2018-11-01T07:29:02.781Z,0.50
2018-11-01T07:31:30.492Z,0.57
2018-11-01T07:33:58.206Z,0.20
2018-11-01T07:36:25.887Z,0.40
2018-11-01T07:38:53.595Z,0.60
2018-11-01T07:41:21.347Z,0.27
2018-11-01T07:43:49.357Z,0.27
2018-11-01T07:46:17.319Z,0.30
2018-11-01T07:48:45.145Z,0.33
2018-11-01T07:51:13.158Z,0.43
2018-11-01T07:53:40.881Z,0.30
2018-11-01T07:56:08.586Z,0.60
2018-11-01T07:58:36.372Z,0.70
2018-11-01T08:01:04.054Z,0.40
2018-11-01T08:03:31.763Z,0.30
2018-11-01T08:05:59.662Z,0.50
2018-11-01T08:08:27.236Z,0.53
2018-11-01T08:10:54.965Z,0.53
2018-11-01T08:13:22.697Z,0.60
2018-11-01T08:15:50.390Z,0.60
2018-11-01T08:18:18.076Z,0.20
2018-11-01T08:20:45.849Z,0.20
2018-11-01T08:23:13.559Z,0.27
2018-11-01T08:25:41.248Z,0.37
2018-11-01T08:28:09.062Z,0.40
2018-11-01T08:30:36.733Z,0.33
2018-11-01T08:33:04.533Z,0.40
2018-11-01T08:35:32.299Z,0.10
2018-11-01T08:37:59.998Z,0.37
2018-11-01T08:40:27.722Z,0.33
2018-11-01T08:42:55.411Z,0.50
2018-11-01T08:45:23.126Z,0.60
2018-11-01T08:47:50.841Z,0.30
2018-11-01T08:50:18.581Z,0.60
2018-11-01T08:52:46.261Z,0.40
2018-11-01T08:55:14.454Z,0.40
2018-11-01T08:57:43.397Z,0.50
2018-11-01T09:00:12.030Z,0.60
2018-11-01T09:02:40.303Z,0.50
2018-11-01T09:05:09.090Z,0.70
2018-11-01T09:07:37.273Z,0.40
2018-11-01T09:10:06.890Z,0.63
2018-11-01T09:12:34.599Z,0.70
2018-11-01T09:15:02.321Z,0.47
2018-11-01T09:17:30.032Z,0.73
2018-11-01T09:19:57.761Z,0.90
2018-11-01T09:22:25.594Z,0.57
2018-11-01T09:24:53.307Z,0.70
2018-11-01T09:27:21.047Z,0.70
2018-11-01T09:29:48.753Z,0.80
2018-11-01T09:32:16.459Z,0.80
2018-11-01T09:34:44.160Z,0.97
2018-11-01T09:37:11.857Z,0.53
2018-11-01T09:39:39.531Z,0.60
2018-11-01T09:42:07.925Z,0.40
2018-11-01T09:44:35.678Z,0.53
2018-11-01T09:47:03.706Z,0.43
2018-11-01T09:49:31.067Z,0.63
2018-11-01T09:51:58.795Z,0.57
2018-11-01T09:54:26.605Z,0.60
2018-11-01T09:56:54.280Z,0.97
2018-11-01T09:59:22.023Z,0.70
2018-11-01T10:01:49.702Z,0.60
2018-11-01T10:04:17.435Z,0.63
2018-11-01T10:06:45.198Z,0.60
2018-11-01T10:09:12.938Z,0.40
2018-11-01T10:11:40.644Z,0.53
2018-11-01T10:14:08.755Z,1.50
2018-11-01T10:16:37.284Z,0.50
2018-11-01T10:19:05.678Z,0.77
2018-11-01T10:21:33.410Z,0.57
2018-11-01T10:24:01.138Z,0.50
2018-11-01T10:26:28.839Z,2.70
2018-11-01T10:28:56.562Z,0.70
2018-11-01T10:31:24.410Z,0.53
2018-11-01T10:33:52.162Z,0.70
2018-11-01T10:36:19.869Z,0.83
2018-11-01T10:38:47.582Z,0.60
2018-11-01T10:41:15.303Z,0.60
2018-11-01T10:43:43.051Z,0.57
2018-11-01T10:46:10.761Z,0.40
2018-11-01T10:48:38.502Z,0.53
2018-11-01T10:51:06.550Z,0.80
2018-11-01T10:53:34.555Z,0.70
2018-11-01T10:56:02.405Z,0.60
2018-11-01T10:58:30.103Z,0.70
2018-11-01T11:01:03.548Z,0.97
2018-11-01T11:03:31.242Z,0.50
2018-11-01T11:05:58.951Z,0.33
2018-11-01T11:08:26.638Z,0.63
2018-11-01T11:10:54.490Z,0.70
2018-11-01T11:13:22.166Z,0.83
2018-11-01T11:15:49.843Z,0.80
2018-11-01T11:18:17.579Z,1.33
2018-11-01T11:20:45.428Z,0.40
2018-11-01T11:23:12.987Z,1.20
2018-11-01T11:25:40.716Z,0.90
2018-11-01T11:28:08.435Z,0.60
2018-11-01T11:30:36.212Z,0.60
2018-11-01T11:33:03.907Z,0.57
2018-11-01T11:35:31.680Z,1.03
2018-11-01T11:37:59.343Z,1.10
2018-11-01T11:40:27.066Z,1.03
2018-11-01T11:42:54.759Z,0.93
2018-11-01T11:45:22.442Z,0.90
2018-11-01T11:47:50.179Z,0.87
2018-11-01T11:50:17.877Z,0.70
2018-11-01T11:52:45.965Z,0.80
2018-11-01T11:55:13.706Z,1.00
2018-11-01T11:57:41.393Z,0.80
2018-11-01T12:00:12.564Z,1.47
2018-11-01T12:02:40.295Z,0.90
2018-11-01T12:05:08.301Z,0.70
2018-11-01T12:07:36.109Z,0.90
2018-11-01T12:10:04.114Z,0.83
2018-11-01T12:12:31.823Z,1.00
2018-11-01T12:14:59.539Z,0.50
2018-11-01T12:17:27.259Z,0.70
2018-11-01T12:19:54.962Z,0.80
2018-11-01T12:22:22.779Z,1.07
2018-11-01T12:24:50.400Z,1.50
2018-11-01T12:27:18.108Z,1.10
2018-11-01T12:29:45.847Z,1.20
2018-11-01T12:32:13.554Z,1.67
2018-11-01T12:34:41.269Z,0.83
2018-11-01T12:37:08.984Z,1.30
2018-11-01T12:39:36.651Z,1.90
2018-11-01T12:42:04.444Z,2.00
2018-11-01T12:44:32.119Z,2.37
2018-11-01T12:46:59.845Z,3.53
2018-11-01T12:49:27.705Z,3.30
2018-11-01T12:51:55.429Z,2.70
2018-11-01T12:54:23.145Z,3.07
2018-11-01T12:56:50.881Z,3.30
2018-11-01T12:59:18.575Z,3.73
2018-11-01T13:01:46.251Z,2.97
2018-11-01T13:04:14.005Z,3.10
2018-11-01T13:06:41.722Z,2.70
2018-11-01T13:09:11.806Z,2.50
2018-11-01T13:11:56.452Z,2.57
2018-11-01T13:14:24.360Z,2.10
2018-11-01T13:16:52.254Z,2.63
2018-11-01T13:19:20.211Z,2.20
2018-11-01T13:21:48.115Z,2.07
2018-11-01T13:24:16.041Z,1.77
2018-11-01T13:26:43.778Z,1.50
2018-11-01T13:29:11.490Z,2.27
2018-11-01T13:31:39.219Z,1.90
2018-11-01T13:34:06.998Z,2.30
2018-11-01T13:36:34.693Z,1.90
2018-11-01T13:39:02.521Z,1.50
2018-11-01T13:41:30.267Z,1.30
2018-11-01T13:43:58.166Z,1.07
2018-11-01T13:46:26.800Z,1.30
2018-11-01T13:48:54.546Z,1.23
2018-11-01T13:51:22.233Z,1.20
2018-11-01T13:53:49.971Z,1.47
2018-11-01T13:56:17.689Z,1.10
2018-11-01T13:58:45.418Z,1.17
2018-11-01T14:01:13.147Z,1.23
2018-11-01T14:03:40.840Z,1.60
2018-11-01T14:06:08.587Z,1.43
2018-11-01T14:08:36.311Z,1.50
2018-11-01T14:11:04.263Z,1.50
2018-11-01T14:13:32.137Z,1.73
2018-11-01T14:15:59.706Z,1.50
2018-11-01T14:18:27.427Z,1.43
2018-11-01T14:20:55.151Z,1.50
2018-11-01T14:23:22.899Z,1.57
2018-11-01T14:25:50.591Z,1.53
2018-11-01T14:28:18.283Z,0.80
2018-11-01T14:30:46.009Z,1.20
2018-11-01T14:33:13.775Z,1.97
2018-11-01T14:35:41.462Z,0.97
2018-11-01T14:38:09.233Z,1.17
2018-11-01T14:40:36.947Z,1.43
2018-11-01T14:43:05.118Z,1.23
2018-11-01T14:45:32.846Z,1.17
2018-11-01T14:48:00.570Z,1.30
2018-11-01T14:50:28.307Z,1.17
2018-11-01T14:52:56.844Z,1.10
2018-11-01T14:55:24.855Z,1.37
2018-11-01T14:57:52.960Z,2.10
2018-11-01T15:00:19.265Z,1.47
2018-11-01T15:02:46.968Z,1.87
2018-11-01T15:05:14.659Z,2.07
2018-11-01T15:07:42.387Z,1.70
2018-11-01T15:10:12.061Z,1.60
2018-11-01T15:12:39.767Z,1.97
2018-11-01T15:15:08.195Z,1.60
2018-11-01T15:17:35.949Z,1.50
2018-11-01T15:20:03.994Z,1.57
2018-11-01T15:22:31.745Z,2.17
2018-11-01T15:24:59.470Z,1.87
2018-11-01T15:27:27.454Z,2.63
2018-11-01T15:29:55.248Z,2.63
2018-11-01T15:32:28.809Z,1.60
2018-11-01T15:34:57.310Z,1.60
2018-11-01T15:37:25.145Z,1.33
2018-11-01T15:39:53.417Z,1.43
2018-11-01T15:42:21.059Z,2.00
2018-11-01T15:44:48.897Z,1.57
2018-11-01T15:47:16.607Z,1.50
2018-11-01T15:49:44.830Z,1.70
2018-11-01T15:52:12.588Z,1.70
2018-11-01T15:54:40.294Z,1.50
2018-11-01T15:57:08.024Z,2.90
2018-11-01T15:59:35.790Z,3.17
2018-11-01T16:02:03.555Z,2.77
2018-11-01T16:04:31.278Z,2.40
2018-11-01T16:06:59.062Z,2.07
2018-11-01T16:09:26.789Z,1.63
2018-11-01T16:11:54.506Z,1.60
2018-11-01T16:14:22.259Z,1.60
2018-11-01T16:16:50.042Z,2.43
2018-11-01T16:19:17.766Z,2.40
2018-11-01T16:21:45.561Z,1.50
2018-11-01T16:24:13.299Z,1.47
2018-11-01T16:26:40.970Z,1.90
2018-11-01T16:29:08.701Z,1.57
2018-11-01T16:31:36.439Z,1.80
2018-11-01T16:34:04.237Z,1.53
2018-11-01T16:36:32.049Z,1.70
2018-11-01T16:38:59.698Z,1.40
2018-11-01T16:41:27.415Z,1.60
2018-11-01T16:43:55.121Z,1.17
2018-11-01T16:46:22.858Z,1.20
2018-11-01T16:48:50.709Z,1.70
2018-11-01T16:51:18.437Z,1.80
2018-11-01T16:53:46.154Z,1.70
2018-11-01T16:56:13.882Z,1.73
2018-11-01T16:58:41.591Z,1.50
2018-11-01T17:01:09.368Z,1.57
2018-11-01T17:03:37.086Z,1.63
2018-11-01T17:06:06.089Z,1.23
2018-11-01T17:08:33.917Z,1.80
2018-11-01T17:11:01.611Z,2.23
2018-11-01T17:13:29.331Z,1.50
2018-11-01T17:15:57.065Z,1.53
2018-11-01T17:18:24.795Z,1.83
2018-11-01T17:20:52.533Z,1.40
2018-11-01T17:23:20.302Z,1.33
2018-11-01T17:25:48.113Z,1.60
2018-11-01T17:28:16.288Z,1.27
2018-11-01T17:30:44.063Z,1.87
2018-11-01T17:33:11.785Z,1.53
2018-11-01T17:35:39.533Z,1.90
2018-11-01T17:38:07.272Z,1.80
2018-11-01T17:40:35.006Z,1.63
2018-11-01T17:43:02.726Z,1.60
2018-11-01T17:45:30.480Z,1.40
2018-11-01T17:47:58.197Z,1.93
2018-11-01T17:50:25.923Z,1.60
2018-11-01T17:52:53.637Z,1.57
2018-11-01T17:55:21.391Z,1.20
2018-11-01T17:57:49.150Z,1.30
2018-11-01T18:00:17.165Z,1.20
2018-11-01T18:02:45.093Z,1.37
2018-11-01T18:05:13.016Z,1.00
2018-11-01T18:07:41.102Z,1.60
2018-11-01T18:10:10.542Z,1.43
2018-11-01T18:12:38.227Z,1.23
2018-11-01T18:15:06.762Z,2.20
2018-11-01T18:17:34.462Z,1.57
2018-11-01T18:20:02.162Z,1.50
2018-11-01T18:22:29.874Z,1.37
2018-11-01T18:24:57.598Z,1.30
2018-11-01T18:27:25.564Z,1.30
2018-11-01T18:29:53.283Z,1.37
2018-11-01T18:32:20.992Z,1.33
2018-11-01T18:34:48.749Z,0.90
2018-11-01T18:37:16.509Z,0.93
2018-11-01T18:39:44.190Z,1.20
2018-11-01T18:42:11.908Z,1.40
2018-11-01T18:44:39.643Z,1.33
2018-11-01T18:47:07.396Z,1.17
2018-11-01T18:49:35.152Z,1.20
2018-11-01T18:52:02.969Z,1.00
2018-11-01T18:54:30.730Z,1.10
2018-11-01T18:56:58.427Z,1.00
2018-11-01T18:59:26.127Z,1.20
2018-11-01T19:01:53.886Z,0.97
2018-11-01T19:04:21.574Z,1.10
2018-11-01T19:06:49.324Z,1.20
2018-11-01T19:09:17.101Z,0.97
2018-11-01T19:11:44.829Z,0.97
2018-11-01T19:14:12.625Z,0.83
2018-11-01T19:16:40.302Z,1.10
2018-11-01T19:19:08.051Z,1.20
2018-11-01T19:21:35.840Z,1.00
2018-11-01T19:24:03.558Z,1.00
2018-11-01T19:26:31.322Z,0.80
2018-11-01T19:28:59.063Z,0.60
2018-11-01T19:31:26.746Z,1.20
2018-11-01T19:33:54.473Z,0.73
2018-11-01T19:36:22.188Z,0.90
2018-11-01T19:38:49.908Z,0.70
2018-11-01T19:41:17.637Z,0.90
2018-11-01T19:43:45.374Z,0.90
2018-11-01T19:46:13.068Z,0.87
2018-11-01T19:48:40.936Z,1.17
2018-11-01T19:51:08.744Z,1.00
2018-11-01T19:53:36.562Z,0.90
2018-11-01T19:56:04.474Z,0.80
2018-11-01T19:58:32.154Z,1.07
2018-11-01T20:00:59.861Z,0.73
2018-11-01T20:03:31.161Z,1.00
2018-11-01T20:05:59.202Z,0.80
2018-11-01T20:08:27.031Z,1.20
2018-11-01T20:10:54.713Z,0.80
2018-11-01T20:13:22.421Z,0.80
2018-11-01T20:15:50.141Z,1.00
2018-11-01T20:18:17.868Z,1.00
2018-11-01T20:20:45.569Z,1.03
2018-11-01T20:23:13.308Z,1.07
2018-11-01T20:25:41.272Z,1.07
2018-11-01T20:28:08.877Z,0.77
2018-11-01T20:30:36.642Z,0.80
2018-11-01T20:33:04.494Z,1.07
2018-11-01T20:35:32.190Z,1.47
2018-11-01T20:37:59.990Z,1.10
2018-11-01T20:40:27.694Z,0.90
2018-11-01T20:42:55.435Z,0.90
2018-11-01T20:45:23.160Z,1.30
2018-11-01T20:47:50.849Z,1.17
2018-11-01T20:50:18.643Z,1.47
2018-11-01T20:52:46.387Z,0.87
2018-11-01T20:55:14.193Z,0.70
2018-11-01T20:57:42.000Z,1.03
2018-11-01T21:00:11.258Z,0.90
2018-11-01T21:02:39.026Z,0.77
2018-11-01T21:05:06.927Z,1.40
2018-11-01T21:07:34.662Z,1.03
2018-11-01T21:10:02.666Z,1.30
2018-11-01T21:12:30.366Z,1.03
2018-11-01T21:14:58.181Z,0.80
2018-11-01T21:17:25.898Z,1.10
2018-11-01T21:19:53.606Z,1.10
2018-11-01T21:22:21.357Z,1.10
2018-11-01T21:24:49.061Z,1.10
2018-11-01T21:27:16.789Z,1.10
2018-11-01T21:29:44.564Z,0.90
2018-11-01T21:32:12.320Z,1.13
2018-11-01T21:34:40.021Z,0.80
2018-11-01T21:37:08.061Z,1.40
2018-11-01T21:39:35.778Z,1.00
2018-11-01T21:42:03.843Z,1.00
2018-11-01T21:44:31.597Z,1.10
2018-11-01T21:46:59.319Z,1.07
2018-11-01T21:49:27.050Z,0.90
2018-11-01T21:51:54.773Z,0.97
2018-11-01T21:54:22.494Z,1.90
2018-11-01T21:56:50.226Z,2.13
2018-11-01T21:59:17.930Z,1.83
2018-11-01T22:01:45.659Z,2.80
2018-11-01T22:04:13.421Z,2.40
2018-11-01T22:06:41.167Z,2.17
2018-11-01T22:09:09.098Z,5.60
2018-11-01T22:11:37.120Z,2.27
2018-11-01T22:14:04.985Z,3.37
2018-11-01T22:16:32.693Z,3.17
2018-11-01T22:19:00.426Z,3.70
2018-11-01T22:21:28.172Z,3.07
2018-11-01T22:23:55.921Z,2.60
2018-11-01T22:26:23.681Z,3.60
2018-11-01T22:28:51.600Z,2.43
2018-11-01T22:31:19.243Z,2.97
2018-11-01T22:33:46.995Z,3.60
2018-11-01T22:36:14.687Z,3.13
2018-11-01T22:38:42.441Z,3.13
2018-11-01T22:41:10.160Z,2.90
2018-11-01T22:43:37.872Z,3.93
2018-11-01T22:46:05.618Z,2.63
2018-11-01T22:48:33.361Z,3.73
2018-11-01T22:51:01.062Z,4.00
2018-11-01T22:53:28.791Z,2.80
2018-11-01T22:55:56.548Z,3.23
2018-11-01T22:58:24.279Z,3.23
2018-11-01T23:00:51.971Z,3.70
2018-11-01T23:03:19.729Z,3.20
2018-11-01T23:05:47.414Z,2.13
2018-11-01T23:08:15.134Z,2.10
2018-11-01T23:10:42.881Z,2.27
2018-11-01T23:13:10.601Z,2.63
2018-11-01T23:15:38.287Z,4.13
2018-11-01T23:18:06.056Z,4.53
2018-11-01T23:20:33.774Z,3.67
2018-11-01T23:23:01.481Z,4.00
2018-11-01T23:25:29.206Z,3.27
2018-11-01T23:27:56.925Z,3.03
2018-11-01T23:30:24.649Z,2.30
2018-11-01T23:32:52.558Z,2.90
2018-11-01T23:35:20.253Z,3.77
2018-11-01T23:37:53.478Z,3.20
2018-11-01T23:40:26.784Z,4.47
2018-11-01T23:43:00.070Z,3.00
2018-11-01T23:45:33.373Z,3.77
2018-11-01T23:48:00.518Z,3.90
2018-11-01T23:50:34.127Z,4.27
2018-11-01T23:53:37.788Z,4.63
2018-11-01T23:56:05.513Z,7.23
2018-11-01T23:58:33.241Z,6.07
